Time;durP1;ratioP1;P1;durP2;ratioP2;P2;SDS_P1;SDS_P2;PMS_P1;PMS_P2;Temp;Humidity;BMP_temperature;BMP_pressure;BME280_temperature;BME280_humidity;BME280_pressure;Samples;Min_cycle;Max_cycle;Signal;HPM_P1;HPM_P2
2022/12/03 00:01:45;;;;;;;6.97;5.05;;;19.80;34.50;;;;;;5038432;28;20431;-59
2022/12/03 00:04:11;;;;;;;6.03;5.13;;;19.80;34.50;;;;;;5043498;28;20406;-61
2022/12/03 00:06:37;;;;;;;7.00;5.15;;;19.80;34.50;;;;;;5038295;28;20036;-58
2022/12/03 00:09:03;;;;;;;5.85;4.63;;;19.80;34.40;;;;;;5033171;28;20029;-58
2022/12/03 00:11:29;;;;;;;6.75;5.07;;;19.80;34.50;;;;;;5057417;28;20079;-58
2022/12/03 00:13:55;;;;;;;7.80;5.07;;;19.80;34.40;;;;;;5056629;28;20032;-57
2022/12/03 00:16:21;;;;;;;6.35;4.90;;;19.80;34.40;;;;;;5058052;28;20119;-55
2022/12/03 00:18:47;;;;;;;5.43;4.45;;;19.80;34.40;;;;;;5037799;28;20130;-60
2022/12/03 00:21:13;;;;;;;8.15;5.07;;;19.70;34.40;;;;;;5057487;28;20130;-57
2022/12/03 00:23:38;;;;;;;7.53;5.20;;;19.70;34.40;;;;;;5057951;28;20047;-57
2022/12/03 00:26:04;;;;;;;6.13;5.00;;;19.80;34.40;;;;;;5057812;28;20035;-57
2022/12/03 00:28:30;;;;;;;5.55;4.60;;;19.70;34.40;;;;;;5055182;28;20044;-58
2022/12/03 00:30:56;;;;;;;6.05;4.88;;;19.70;34.40;;;;;;5057864;28;20066;-58
2022/12/03 00:33:22;;;;;;;6.65;5.28;;;19.70;34.40;;;;;;5057577;28;20171;-55
2022/12/03 00:35:48;;;;;;;6.22;4.82;;;19.70;34.30;;;;;;5039173;28;20103;-58
2022/12/03 00:38:14;;;;;;;6.15;5.18;;;19.70;34.40;;;;;;5055684;28;20033;-54
2022/12/03 00:40:40;;;;;;;6.40;4.80;;;19.70;34.30;;;;;;5054531;28;20041;-58
2022/12/03 00:43:06;;;;;;;6.18;4.90;;;19.70;34.30;;;;;;5041086;28;20036;-59
2022/12/03 00:45:32;;;;;;;6.85;5.35;;;19.70;34.30;;;;;;5056778;28;20021;-59
2022/12/03 00:47:58;;;;;;;6.72;4.90;;;19.70;34.40;;;;;;5056094;28;20041;-59
2022/12/03 00:50:23;;;;;;;6.90;5.20;;;19.70;34.40;;;;;;5040060;28;20056;-58
2022/12/03 00:52:49;;;;;;;5.88;4.85;;;19.70;35.00;;;;;;5057236;28;20087;-57
2022/12/03 00:55:16;;;;;;;7.15;4.93;;;19.70;34.40;;;;;;5057523;28;20041;-57
2022/12/03 00:57:41;;;;;;;5.95;4.90;;;19.70;34.40;;;;;;5052182;28;20037;-61
2022/12/03 01:00:08;;;;;;;7.18;5.22;;;19.70;34.40;;;;;;5056028;28;20110;-59
2022/12/03 01:02:34;;;;;;;6.60;5.28;;;19.60;34.30;;;;;;5057164;28;20102;-59
2022/12/03 01:05:00;;;;;;;7.88;5.75;;;19.70;34.30;;;;;;5056598;28;20036;-58
2022/12/03 01:07:26;;;;;;;7.22;5.38;;;19.60;34.30;;;;;;5055373;28;20047;-60
2022/12/03 01:09:52;;;;;;;8.35;5.70;;;19.70;34.40;;;;;;5046841;28;20076;-56
2022/12/03 01:12:18;;;;;;;6.63;5.03;;;19.60;34.30;;;;;;5036889;28;20044;-60
2022/12/03 01:14:43;;;;;;;7.10;5.70;;;19.60;34.30;;;;;;5037491;28;20025;-59
2022/12/03 01:17:11;;;;;;;6.65;5.40;;;19.60;34.40;;;;;;5043773;28;20033;-56
2022/12/03 01:19:37;;;;;;;7.18;4.95;;;19.60;34.30;;;;;;5019053;28;20033;-59
2022/12/03 01:22:03;;;;;;;6.45;5.32;;;19.60;34.30;;;;;;5019248;28;20094;-58
2022/12/03 01:24:29;;;;;;;6.47;5.32;;;19.60;34.30;;;;;;5036959;28;20029;-59
2022/12/03 01:26:55;;;;;;;7.05;5.60;;;19.60;34.30;;;;;;5037228;28;20477;-58
2022/12/03 01:29:21;;;;;;;6.43;4.97;;;19.60;34.30;;;;;;5051903;28;20131;-59
2022/12/03 01:34:31;;;;;;;6.90;5.38;;;19.60;34.40;;;;;;5046065;28;20044;-54
2022/12/03 01:36:57;;;;;;;7.35;5.32;;;19.60;34.50;;;;;;5056442;28;20029;-59
2022/12/03 01:39:23;;;;;;;8.00;5.60;;;19.60;34.50;;;;;;5054893;28;20052;-58
2022/12/03 01:41:51;;;;;;;6.43;5.18;;;19.60;35.10;;;;;;5056198;28;20174;-57
2022/12/03 01:44:23;;;;;;;8.10;5.30;;;19.60;34.50;;;;;;5055677;28;20064;-56
2022/12/03 01:46:51;;;;;;;7.10;5.10;;;19.50;34.40;;;;;;5038246;28;20049;-58
2022/12/03 01:49:21;;;;;;;6.97;5.30;;;19.50;34.40;;;;;;5039909;28;20025;-58
2022/12/03 01:51:48;;;;;;;5.95;4.68;;;19.50;34.40;;;;;;5036142;28;20045;-58
2022/12/03 01:54:21;;;;;;;7.38;4.95;;;19.60;34.40;;;;;;5036006;28;20037;-57
2022/12/03 01:56:47;;;;;;;7.85;5.75;;;19.60;34.40;;;;;;5025281;28;20365;-57
2022/12/03 01:59:16;;;;;;;7.10;5.35;;;19.50;34.30;;;;;;5054130;28;20405;-58
2022/12/03 02:01:42;;;;;;;7.18;5.75;;;19.50;34.30;;;;;;5056193;28;20061;-59
2022/12/03 02:04:15;;;;;;;6.88;5.43;;;19.50;34.30;;;;;;5055666;28;20407;-58
2022/12/03 02:06:42;;;;;;;7.05;5.32;;;19.50;34.30;;;;;;5037775;28;20032;-59
2022/12/03 02:09:12;;;;;;;7.05;5.57;;;19.50;34.30;;;;;;5045450;28;20348;-58
2022/12/03 02:11:42;;;;;;;6.88;5.53;;;19.50;34.30;;;;;;5036023;28;20437;-58
2022/12/03 02:14:13;;;;;;;7.88;6.00;;;19.50;34.30;;;;;;5036623;28;20034;-57
2022/12/03 02:16:41;;;;;;;8.00;6.20;;;19.50;34.30;;;;;;5034871;28;20449;-56
2022/12/03 02:19:15;;;;;;;6.45;5.18;;;19.50;34.30;;;;;;5049684;28;20052;-59
2022/12/03 02:21:41;;;;;;;;;;;19.50;34.20;;;;;;5055075;28;20116;-60
2022/12/03 02:24:30;;;;;;;6.75;5.50;;;19.50;34.20;;;;;;5037246;28;19952;-56
2022/12/03 02:26:56;;;;;;;5.78;5.05;;;19.40;34.20;;;;;;5035557;28;20036;-59
2022/12/03 02:29:24;;;;;;;7.60;5.70;;;19.40;34.20;;;;;;5038047;28;20037;-57
2022/12/03 02:31:50;;;;;;;7.43;5.50;;;19.50;34.30;;;;;;5050813;28;20028;-57
2022/12/03 02:34:44;;;;;;;6.90;5.65;;;19.40;34.20;;;;;;5055120;28;20045;-58
2022/12/03 02:37:14;;;;;;;7.03;5.22;;;19.40;34.30;;;;;;5036779;28;20396;-57
2022/12/03 02:39:44;;;;;;;7.70;5.85;;;19.40;34.30;;;;;;5035875;28;20071;-58
2022/12/03 02:44:58;;;;;;;7.18;5.68;;;19.40;34.30;;;;;;5054573;28;20033;-58
2022/12/03 02:47:24;;;;;;;7.78;5.47;;;19.40;34.30;;;;;;5053393;28;20098;-57
2022/12/03 02:49:51;;;;;;;6.53;5.70;;;19.40;34.30;;;;;;5035796;28;20112;-60
2022/12/03 02:52:17;;;;;;;7.38;5.95;;;19.40;34.30;;;;;;5017626;28;20045;-57
2022/12/03 02:54:43;;;;;;;6.10;5.22;;;19.40;34.30;;;;;;5034990;28;20056;-59
2022/12/03 02:57:09;;;;;;;7.30;5.55;;;19.40;34.30;;;;;;5052004;28;20095;-59
2022/12/03 02:59:35;;;;;;;7.93;5.95;;;19.40;34.30;;;;;;5053640;28;20243;-58
2022/12/03 03:02:01;;;;;;;7.28;5.97;;;19.40;34.30;;;;;;5054909;28;20037;-58
2022/12/03 03:04:27;;;;;;;7.50;5.70;;;19.40;34.30;;;;;;5055666;28;20032;-58
2022/12/03 03:06:53;;;;;;;7.65;6.25;;;19.40;34.30;;;;;;5054617;28;20024;-59
2022/12/03 03:09:20;;;;;;;6.97;5.75;;;19.40;34.30;;;;;;5050131;28;20063;-58
2022/12/03 03:11:45;;;;;;;7.93;6.25;;;19.40;34.30;;;;;;5034792;28;20053;-57
2022/12/03 03:14:11;;;;;;;7.32;5.57;;;19.40;34.20;;;;;;5034337;28;20034;-58
2022/12/03 03:16:38;;;;;;;7.18;5.53;;;19.30;34.20;;;;;;5017572;28;20087;-60
2022/12/03 03:19:04;;;;;;;6.93;5.20;;;19.40;34.20;;;;;;5048748;28;20123;-54
2022/12/03 03:21:29;;;;;;;7.78;5.60;;;19.40;34.20;;;;;;5053091;28;20025;-55
2022/12/03 03:23:55;;;;;;;7.68;5.88;;;19.40;34.20;;;;;;5053839;28;20033;-59
2022/12/03 03:26:22;;;;;;;8.15;5.60;;;19.30;34.20;;;;;;5055033;28;20033;-56
2022/12/03 03:28:50;;;;;;;6.70;5.30;;;19.30;34.20;;;;;;5056545;28;20448;-60
2022/12/03 03:31:18;;;;;;;7.53;5.88;;;19.30;34.20;;;;;;5058816;28;20037;-59
2022/12/03 03:33:46;;;;;;;7.85;5.85;;;19.30;34.10;;;;;;5057981;28;20116;-58
2022/12/03 03:36:14;;;;;;;7.13;5.63;;;19.30;34.10;;;;;;5058709;28;20029;-57
2022/12/03 03:38:40;;;;;;;6.07;5.15;;;19.30;34.10;;;;;;5056855;28;20037;-59
2022/12/03 03:41:08;;;;;;;6.57;4.88;;;19.30;34.00;;;;;;5058161;28;20528;-59
2022/12/03 03:43:36;;;;;;;6.65;5.18;;;19.30;34.00;;;;;;5058342;28;20044;-58
2022/12/03 03:46:05;;;;;;;7.25;5.75;;;19.30;34.00;;;;;;5053513;28;20060;-56
2022/12/03 03:48:33;;;;;;;8.02;5.28;;;19.30;33.90;;;;;;5056730;28;20033;-56
2022/12/03 03:51:02;;;;;;;6.50;5.10;;;19.30;34.50;;;;;;5058201;28;20041;-54
2022/12/03 03:53:29;;;;;;;7.78;5.55;;;19.30;33.90;;;;;;5057838;28;20348;-54
2022/12/03 03:55:55;;;;;;;6.65;5.00;;;19.30;33.90;;;;;;5057849;28;20447;-60
2022/12/03 03:58:21;;;;;;;6.53;5.22;;;19.30;33.90;;;;;;5055242;28;20029;-57
2022/12/03 04:00:47;;;;;;;6.43;5.20;;;19.30;33.80;;;;;;5058040;28;20124;-57
2022/12/03 04:03:13;;;;;;;6.93;5.13;;;19.30;33.80;;;;;;5058042;28;20109;-59
2022/12/03 04:05:39;;;;;;;6.45;4.65;;;19.30;33.80;;;;;;5057039;28;20427;-58
2022/12/03 04:08:05;;;;;;;7.20;5.28;;;19.30;33.80;;;;;;5030131;28;20128;-54
2022/12/03 04:13:15;;;;;;;6.47;5.15;;;19.20;33.80;;;;;;5058427;28;20045;-58
2022/12/03 04:15:41;;;;;;;6.20;4.85;;;19.30;33.80;;;;;;5040107;28;20094;-60
2022/12/03 04:22:38;;;;;;;6.13;5.00;;;19.20;33.70;;;;;;5058396;28;20029;-59
2022/12/03 04:23:37;;;;;;;6.40;4.95;;;19.20;33.70;;;;;;5056650;28;20025;-57
2022/12/03 04:28:50;;;;;;;5.85;4.70;;;19.20;33.90;;;;;;5046387;28;20029;-56
2022/12/03 04:36:45;;;;;;;7.07;5.13;;;19.20;33.80;;;;;;5057307;28;20033;-55
2022/12/03 04:39:11;;;;;;;6.18;4.93;;;19.20;33.80;;;;;;5055935;28;20033;-59
2022/12/03 04:41:36;;;;;;;6.90;4.95;;;19.20;33.80;;;;;;5056218;28;20356;-55
2022/12/03 04:46:46;;;;;;;6.43;5.40;;;19.20;33.70;;;;;;5056486;28;20376;-58
2022/12/03 04:49:12;;;;;;;6.85;5.43;;;19.20;33.70;;;;;;5041819;28;20040;-58
2022/12/03 04:51:38;;;;;;;6.25;5.15;;;19.20;33.70;;;;;;5054385;28;20116;-54
2022/12/03 04:54:04;;;;;;;6.65;5.15;;;19.20;33.60;;;;;;5057961;28;20492;-57
2022/12/03 04:56:29;;;;;;;8.25;5.68;;;19.20;33.60;;;;;;5057277;28;20021;-59
2022/12/03 04:58:55;;;;;;;7.88;5.68;;;19.20;33.60;;;;;;5055923;28;20360;-57
2022/12/03 05:01:21;;;;;;;7.70;5.70;;;19.20;33.60;;;;;;5056881;28;20060;-56
2022/12/03 05:03:47;;;;;;;8.15;5.93;;;19.10;33.50;;;;;;5038377;28;20032;-58
2022/12/03 05:06:13;;;;;;;7.72;5.70;;;19.20;33.60;;;;;;5057784;28;20041;-53
2022/12/03 05:08:38;;;;;;;7.55;5.53;;;19.20;33.60;;;;;;5045071;28;20057;-59
2022/12/03 05:11:04;;;;;;;5.75;4.90;;;19.10;33.60;;;;;;5051158;28;20053;-59
2022/12/03 05:13:30;;;;;;;7.70;5.20;;;19.20;33.60;;;;;;5055078;28;20025;-58
2022/12/03 05:15:56;;;;;;;7.28;5.45;;;19.10;33.60;;;;;;5056986;28;20345;-55
2022/12/03 05:18:22;;;;;;;7.40;5.45;;;19.10;33.60;;;;;;5046026;28;20044;-57
2022/12/03 05:20:47;;;;;;;8.18;6.10;;;19.20;33.60;;;;;;5036598;28;20037;-58
2022/12/03 05:23:14;;;;;;;7.10;5.82;;;19.10;33.60;;;;;;5049922;28;20090;-56
2022/12/03 05:25:40;;;;;;;7.38;5.07;;;19.10;33.60;;;;;;5056667;28;20119;-55
2022/12/03 05:28:06;;;;;;;6.85;5.38;;;19.10;33.60;;;;;;5053648;28;20040;-58
2022/12/03 05:30:32;;;;;;;6.85;5.65;;;19.10;33.60;;;;;;5056723;28;20048;-58
2022/12/03 05:32:58;;;;;;;8.85;6.22;;;19.20;33.70;;;;;;5055036;28;20095;-58
2022/12/03 05:35:24;;;;;;;7.22;5.43;;;19.10;33.60;;;;;;5056890;28;20029;-55
2022/12/03 05:37:50;;;;;;;7.72;6.07;;;19.10;33.60;;;;;;5055594;28;20056;-56
2022/12/03 05:40:17;;;;;;;7.55;6.18;;;19.10;33.70;;;;;;5056893;28;20421;-55
2022/12/03 05:42:53;;;;;;;7.80;5.90;;;19.10;33.60;;;;;;5054797;28;20029;-56
2022/12/03 05:45:29;;;;;;;9.52;5.95;;;19.10;33.60;;;;;;5036655;28;20026;-57
2022/12/03 05:47:56;;;;;;;8.25;6.20;;;19.10;33.70;;;;;;5040061;28;20048;-59
2022/12/03 05:50:25;;;;;;;9.27;6.30;;;19.10;33.60;;;;;;5054534;28;20029;-59
2022/12/03 05:52:54;;;;;;;9.18;6.10;;;19.10;33.70;;;;;;5054513;28;20107;-57
2022/12/03 05:55:20;;;;;;;7.80;6.05;;;19.10;33.60;;;;;;5056018;28;20068;-57
2022/12/03 05:57:46;;;;;;;7.43;5.70;;;19.00;33.60;;;;;;5054116;28;20061;-59
2022/12/03 06:00:16;;;;;;;8.45;6.10;;;19.10;33.70;;;;;;5056118;28;20103;-60
2022/12/03 06:02:42;;;;;;;8.82;6.40;;;19.10;33.70;;;;;;5036929;28;20033;-60
2022/12/03 06:05:10;;;;;;;8.50;5.88;;;19.10;33.70;;;;;;5038173;28;20025;-56
2022/12/03 06:07:36;;;;;;;8.35;6.00;;;19.10;33.60;;;;;;5044874;28;20025;-55
2022/12/03 06:10:03;;;;;;;9.32;5.97;;;19.00;33.60;;;;;;5054598;28;20037;-57
2022/12/03 06:12:29;;;;;;;8.13;6.15;;;19.00;33.60;;;;;;5054568;28;20047;-59
2022/12/03 06:14:56;;;;;;;9.05;6.00;;;19.00;33.60;;;;;;5055846;28;20425;-57
2022/12/03 06:17:22;;;;;;;8.40;5.95;;;19.00;33.60;;;;;;5053079;28;20037;-56
2022/12/03 06:19:48;;;;;;;8.25;6.03;;;19.10;33.60;;;;;;5055958;28;20040;-59
2022/12/03 06:22:13;;;;;;;7.88;5.78;;;19.00;33.60;;;;;;5054078;28;20109;-57
2022/12/03 06:24:39;;;;;;;8.30;5.68;;;19.00;33.60;;;;;;5055457;28;20061;-54
2022/12/03 06:27:05;;;;;;;7.25;5.32;;;19.00;33.60;;;;;;5053411;28;20474;-58
2022/12/03 06:29:31;;;;;;;8.45;5.68;;;19.00;33.60;;;;;;5055446;28;20025;-58
2022/12/03 06:31:57;;;;;;;7.65;5.55;;;19.00;33.60;;;;;;5054744;28;20183;-58
2022/12/03 06:34:22;;;;;;;6.65;5.03;;;19.00;33.60;;;;;;5037401;28;20029;-58
2022/12/03 06:36:51;;;;;;;7.13;5.18;;;19.00;33.60;;;;;;5055155;28;20025;-55
2022/12/03 06:39:17;;;;;;;7.63;5.25;;;19.00;33.60;;;;;;5035752;28;20025;-58
2022/12/03 06:41:43;;;;;;;7.55;5.63;;;19.00;33.60;;;;;;5036787;28;20061;-59
2022/12/03 06:44:09;;;;;;;7.80;4.88;;;19.00;33.60;;;;;;5054925;28;20064;-59
2022/12/03 06:46:35;;;;;;;9.15;5.70;;;19.00;33.70;;;;;;5054856;28;20040;-53
2022/12/03 06:49:01;;;;;;;7.30;5.15;;;19.00;33.70;;;;;;5037481;28;20025;-58
2022/12/03 06:51:27;;;;;;;8.00;5.40;;;19.00;33.70;;;;;;5020501;28;20047;-60
2022/12/03 06:53:53;;;;;;;7.32;5.20;;;19.00;33.70;;;;;;5055132;28;20037;-59
2022/12/03 06:56:19;;;;;;;7.13;5.28;;;19.00;33.70;;;;;;5055191;28;20028;-56
2022/12/03 06:58:45;;;;;;;7.28;5.35;;;19.00;33.70;;;;;;5053866;28;20040;-58
2022/12/03 07:01:10;;;;;;;7.60;5.30;;;19.00;33.70;;;;;;5054620;28;20032;-58
2022/12/03 07:03:36;;;;;;;6.32;4.82;;;19.00;33.70;;;;;;5053135;28;20119;-56
2022/12/03 07:06:02;;;;;;;8.20;5.40;;;19.00;33.80;;;;;;5054811;28;20036;-54
2022/12/03 07:08:28;;;;;;;8.95;6.00;;;19.00;33.80;;;;;;5053005;28;20404;-58
2022/12/03 07:10:54;;;;;;;9.02;6.15;;;19.00;33.90;;;;;;5034562;28;20145;-56
2022/12/03 07:13:35;;;;;;;8.55;5.72;;;18.90;33.80;;;;;;5029622;28;20475;-54
2022/12/03 07:16:00;;;;;;;8.23;5.70;;;18.90;33.90;;;;;;5054651;28;20037;-56
2022/12/03 07:18:26;;;;;;;9.73;6.50;;;18.90;33.90;;;;;;5053260;28;20044;-57
2022/12/03 07:20:52;;;;;;;8.88;6.07;;;18.90;33.90;;;;;;5053211;28;20028;-52
2022/12/03 07:23:18;;;;;;;10.32;6.85;;;18.90;34.00;;;;;;5052278;28;20029;-57
2022/12/03 07:25:44;;;;;;;9.35;6.55;;;18.90;34.00;;;;;;5054616;28;20043;-58
2022/12/03 07:28:10;;;;;;;8.45;5.40;;;18.90;34.10;;;;;;5049245;28;20033;-55
2022/12/03 07:30:36;;;;;;;9.05;5.82;;;18.90;34.20;;;;;;5017313;28;20049;-55
2022/12/03 07:33:02;;;;;;;9.15;6.25;;;19.00;34.30;;;;;;5049313;28;20078;-58
2022/12/03 07:35:28;;;;;;;9.32;6.40;;;18.90;34.20;;;;;;5054018;28;20044;-53
2022/12/03 07:37:54;;;;;;;8.73;6.28;;;18.90;34.20;;;;;;5049491;28;20110;-62
2022/12/03 07:40:19;;;;;;;11.65;6.70;;;18.90;34.30;;;;;;5042213;28;20533;-59
2022/12/03 07:42:45;;;;;;;10.57;6.82;;;18.90;34.20;;;;;;5034708;28;20129;-57
2022/12/03 07:45:11;;;;;;;10.50;7.28;;;18.90;34.20;;;;;;5049561;28;20033;-58
2022/12/03 07:47:37;;;;;;;11.48;7.22;;;18.90;34.20;;;;;;5031397;28;20044;-57
2022/12/03 07:50:03;;;;;;;11.00;7.13;;;18.90;34.20;;;;;;5054444;28;20029;-57
2022/12/03 07:52:29;;;;;;;11.40;7.50;;;18.90;34.20;;;;;;5041681;28;20055;-58
2022/12/03 07:54:54;;;;;;;10.07;7.10;;;18.90;34.20;;;;;;5042056;28;20124;-58
2022/12/03 07:57:20;;;;;;;12.30;7.72;;;18.90;34.20;;;;;;5051401;28;20036;-57
2022/12/03 07:59:46;;;;;;;11.57;7.00;;;18.90;34.20;;;;;;5052514;28;20107;-56
2022/12/03 08:02:12;;;;;;;9.68;7.25;;;18.90;34.20;;;;;;5048545;28;20029;-56
2022/12/03 08:04:37;;;;;;;10.95;7.90;;;18.90;34.10;;;;;;5050295;28;20029;-60
2022/12/03 08:07:03;;;;;;;13.07;8.27;;;18.90;34.00;;;;;;5051151;28;20104;-57
2022/12/03 08:09:30;;;;;;;13.00;8.18;;;18.90;34.00;;;;;;5052703;28;20033;-57
2022/12/03 08:12:02;;;;;;;12.90;8.30;;;18.90;34.00;;;;;;5052894;28;20045;-55
2022/12/03 08:14:28;;;;;;;13.13;8.48;;;18.90;33.90;;;;;;5033498;28;20383;-56
2022/12/03 08:16:54;;;;;;;12.43;8.48;;;18.90;33.90;;;;;;5033932;28;20044;-58
2022/12/03 08:19:20;;;;;;;11.60;8.02;;;18.90;33.90;;;;;;5054291;28;20486;-57
2022/12/03 08:21:45;;;;;;;13.57;8.88;;;19.00;34.00;;;;;;5055404;28;20325;-56
2022/12/03 08:24:13;;;;;;;11.50;8.27;;;19.00;34.00;;;;;;5055173;28;20021;-56
2022/12/03 08:26:39;;;;;;;14.77;8.63;;;19.10;34.00;;;;;;5039068;28;20043;-53
2022/12/03 08:29:09;;;;;;;12.00;8.20;;;19.10;33.90;;;;;;5051692;28;20032;-58
2022/12/03 08:31:34;;;;;;;13.93;8.30;;;19.20;34.00;;;;;;5050445;28;20048;-57
2022/12/03 08:34:23;;;;;;;13.82;8.85;;;19.30;33.90;;;;;;5054549;28;20032;-60
2022/12/03 08:36:54;;;;;;;13.40;8.20;;;19.30;33.90;;;;;;5050566;28;20025;-60
2022/12/03 08:39:47;;;;;;;14.20;8.73;;;19.40;34.10;;;;;;5043170;28;20088;-63
2022/12/03 08:42:40;;;;;;;10.73;7.68;;;19.50;34.20;;;;;;5039091;28;20111;-62
2022/12/03 08:45:29;;;;;;;12.93;8.65;;;19.60;34.10;;;;;;5051578;28;20067;-62
2022/12/03 08:48:01;;;;;;;11.90;8.10;;;19.70;33.90;;;;;;5052931;28;20041;-63
2022/12/03 08:50:31;;;;;;;12.35;7.95;;;19.90;33.70;;;;;;5034987;28;20028;-64
2022/12/03 08:53:10;;;;;;;11.45;7.68;;;20.00;33.50;;;;;;5033470;28;20060;-63
2022/12/03 08:55:43;;;;;;;12.50;7.95;;;20.20;33.30;;;;;;5023882;28;20029;-62
2022/12/03 08:58:22;;;;;;;10.50;7.78;;;20.30;33.10;;;;;;5048680;28;20036;-61
2022/12/03 09:00:56;;;;;;;12.38;8.45;;;20.50;32.90;;;;;;5051909;28;20120;-62
2022/12/03 09:03:23;;;;;;;12.15;7.30;;;20.60;32.70;;;;;;5054465;28;20044;-57
2022/12/03 09:05:50;;;;;;;11.85;8.02;;;20.70;32.50;;;;;;5056534;28;20345;-60
2022/12/03 09:08:16;;;;;;;11.27;7.30;;;20.80;32.30;;;;;;5054197;28;20033;-62
2022/12/03 09:10:42;;;;;;;11.05;7.88;;;20.90;32.10;;;;;;5056790;28;20063;-62
2022/12/03 09:13:08;;;;;;;11.82;7.20;;;21.00;32.00;;;;;;5039600;28;20158;-58
2022/12/03 09:15:34;;;;;;;11.23;7.85;;;21.10;31.80;;;;;;5043688;28;20445;-60
2022/12/03 09:18:00;;;;;;;11.85;7.90;;;21.20;31.70;;;;;;5055614;28;20033;-58
2022/12/03 09:20:25;;;;;;;12.27;7.85;;;21.30;31.50;;;;;;5056935;28;20041;-61
2022/12/03 09:22:51;;;;;;;12.52;7.85;;;21.40;31.40;;;;;;5057053;28;20107;-60
2022/12/03 09:25:17;;;;;;;10.88;7.78;;;21.40;31.30;;;;;;5057389;28;20753;-60
2022/12/03 09:27:43;;;;;;;13.30;8.40;;;21.50;31.20;;;;;;5049287;28;20041;-59
2022/12/03 09:30:09;;;;;;;12.27;7.88;;;21.60;31.10;;;;;;5038350;28;20017;-53
2022/12/03 09:32:35;;;;;;;12.60;8.23;;;21.60;31.00;;;;;;5055912;28;20083;-60
2022/12/03 09:35:01;;;;;;;11.27;7.47;;;21.70;30.90;;;;;;5053864;28;20025;-57
2022/12/03 09:37:27;;;;;;;12.63;8.27;;;21.70;30.70;;;;;;5052229;28;20033;-59
2022/12/03 09:39:53;;;;;;;12.95;7.88;;;21.80;30.70;;;;;;5037122;28;20108;-59
2022/12/03 09:42:19;;;;;;;11.13;7.78;;;21.80;30.60;;;;;;5048961;28;20029;-59
2022/12/03 09:44:45;;;;;;;11.30;7.70;;;21.80;30.50;;;;;;5045538;28;20037;-60
2022/12/03 09:47:11;;;;;;;12.98;7.97;;;21.80;30.40;;;;;;5027477;28;20025;-60
2022/12/03 09:49:39;;;;;;;12.18;8.18;;;21.90;30.40;;;;;;5043877;28;20029;-60
2022/12/03 09:52:06;;;;;;;11.52;7.20;;;21.90;30.30;;;;;;5039878;28;20372;-59
2022/12/03 09:54:33;;;;;;;10.88;7.53;;;21.90;30.20;;;;;;5055641;28;20028;-60
2022/12/03 09:57:02;;;;;;;12.40;8.18;;;21.90;30.20;;;;;;5055613;28;20056;-60
2022/12/03 09:59:33;;;;;;;10.65;7.97;;;21.90;30.00;;;;;;5056353;28;20029;-58
2022/12/03 10:02:00;;;;;;;10.93;7.10;;;21.90;30.00;;;;;;5055828;28;20337;-64
2022/12/03 10:04:27;;;;;;;10.52;7.63;;;21.90;30.00;;;;;;5054051;28;20032;-61
2022/12/03 10:06:54;;;;;;;10.50;7.05;;;21.90;30.00;;;;;;5054084;28;20049;-60
2022/12/03 10:09:26;;;;;;;12.05;7.07;;;22.00;29.90;;;;;;5054964;28;20433;-61
2022/12/03 10:11:52;;;;;;;9.00;6.85;;;22.00;29.90;;;;;;5054312;28;20041;-60
2022/12/03 10:14:19;;;;;;;11.95;7.40;;;22.00;29.80;;;;;;5054918;28;20032;-62
2022/12/03 10:16:45;;;;;;;9.82;6.88;;;22.00;29.80;;;;;;5054719;28;20029;-60
2022/12/03 10:19:19;;;;;;;9.52;6.85;;;22.00;29.70;;;;;;5054016;28;20033;-59
2022/12/03 10:21:46;;;;;;;9.15;6.03;;;22.00;29.70;;;;;;5053606;28;20041;-59
2022/12/03 10:24:21;;;;;;;12.70;6.63;;;22.00;29.80;;;;;;5055005;28;20163;-55
2022/12/03 10:26:48;;;;;;;9.73;6.03;;;22.00;29.80;;;;;;5051298;28;20099;-57
2022/12/03 10:29:22;;;;;;;9.52;6.22;;;22.00;29.80;;;;;;5048549;28;20086;-60
2022/12/03 10:32:00;;;;;;;8.77;6.18;;;22.00;29.80;;;;;;5037911;28;20326;-60
2022/12/03 10:34:32;;;;;;;16.70;9.90;;;22.00;29.90;;;;;;5052756;28;20039;-58
2022/12/03 10:37:11;;;;;;;20.05;11.05;;;22.00;31.30;;;;;;5046459;28;20040;-55
2022/12/03 10:40:00;;;;;;;21.33;12.43;;;22.00;32.80;;;;;;5035884;28;20040;-53
2022/12/03 10:42:31;;;;;;;27.38;14.02;;;22.00;34.50;;;;;;5050650;28;20044;-59
2022/12/03 10:45:18;;;;;;;26.35;12.45;;;22.00;34.70;;;;;;5053956;28;20032;-56
2022/12/03 10:48:14;;;;;;;23.52;12.07;;;22.10;35.50;;;;;;5049221;28;20039;-58
2022/12/03 10:50:53;;;;;;;17.77;10.60;;;22.10;36.30;;;;;;5052500;28;20109;-58
2022/12/03 10:53:31;;;;;;;20.35;10.88;;;22.10;36.00;;;;;;5054585;28;20099;-63
2022/12/03 10:56:00;;;;;;;16.63;10.05;;;22.10;35.70;;;;;;5053772;28;20032;-63
2022/12/03 10:58:34;;;;;;;17.65;9.52;;;22.10;35.60;;;;;;5053518;28;20044;-59
2022/12/03 11:01:04;;;;;;;21.27;10.73;;;22.10;35.50;;;;;;5055109;28;20028;-65
2022/12/03 11:03:34;;;;;;;18.25;10.40;;;22.10;35.60;;;;;;5049507;28;20033;-59
2022/12/03 11:06:02;;;;;;;17.65;9.35;;;22.10;35.90;;;;;;5051533;28;20472;-62
2022/12/03 11:08:34;;;;;;;17.25;8.70;;;22.10;36.00;;;;;;5028480;28;20163;-59
2022/12/03 11:11:20;;;;;;;17.38;8.55;;;22.10;35.90;;;;;;5051434;28;20136;-60
2022/12/03 11:13:47;;;;;;;15.27;8.18;;;22.10;35.40;;;;;;5067355;28;20089;-59
2022/12/03 11:16:34;;;;;;;13.60;7.32;;;22.20;35.00;;;;;;5052540;28;20037;-60
2022/12/03 11:19:01;;;;;;;14.48;8.52;;;22.20;34.50;;;;;;5050574;28;20039;-59
2022/12/03 11:21:27;;;;;;;12.60;6.97;;;22.20;34.10;;;;;;5054664;28;20032;-55
2022/12/03 11:24:00;;;;;;;12.65;7.20;;;22.20;33.80;;;;;;5053378;28;20028;-60
2022/12/03 11:26:29;;;;;;;9.85;6.35;;;22.20;33.40;;;;;;5035423;28;20114;-60
2022/12/03 11:28:56;;;;;;;12.23;6.72;;;22.20;33.10;;;;;;5026255;28;20043;-62
2022/12/03 11:31:41;;;;;;;11.65;7.18;;;22.20;32.90;;;;;;5035324;28;20049;-59
2022/12/03 11:34:16;;;;;;;11.75;7.10;;;22.30;32.60;;;;;;5031955;28;20036;-60
2022/12/03 11:37:11;;;;;;;10.23;6.55;;;22.20;32.10;;;;;;5050286;28;20032;-58
2022/12/03 11:39:49;;;;;;;;;;;22.20;31.80;;;;;;5032835;28;20048;-59
2022/12/03 11:42:26;;;;;;;11.90;6.65;;;22.20;31.70;;;;;;5035754;28;19924;-60
2022/12/03 11:45:17;;;;;;;10.52;6.80;;;22.20;31.60;;;;;;5050770;28;20043;-61
2022/12/03 11:47:44;;;;;;;10.10;6.60;;;22.20;31.50;;;;;;5023694;28;20344;-60
2022/12/03 11:50:25;;;;;;;11.93;6.55;;;22.10;31.40;;;;;;5019106;28;20026;-60
2022/12/03 11:53:25;;;;;;;12.43;6.50;;;22.10;31.40;;;;;;5044159;28;20040;-61
2022/12/03 11:56:05;;;;;;;10.57;6.38;;;22.10;31.40;;;;;;5052482;28;20051;-59
2022/12/03 11:58:32;;;;;;;12.10;6.88;;;22.10;31.30;;;;;;5032380;28;20147;-62
2022/12/03 12:01:01;;;;;;;10.57;6.03;;;22.10;31.20;;;;;;5038503;28;20045;-59
2022/12/03 12:03:33;;;;;;;9.13;6.10;;;22.10;31.10;;;;;;5053577;28;20029;-62
2022/12/03 12:06:04;;;;;;;9.48;5.88;;;22.10;31.10;;;;;;5030505;28;20034;-62
2022/12/03 12:08:30;;;;;;;10.85;6.30;;;22.10;31.10;;;;;;5048145;28;20120;-63
2022/12/03 12:10:56;;;;;;;7.80;5.85;;;22.10;31.30;;;;;;5062588;28;20136;-62
2022/12/03 12:13:30;;;;;;;10.15;6.45;;;22.10;31.40;;;;;;5064406;28;20108;-59
2022/12/03 12:16:04;;;;;;;15.07;6.60;;;22.10;31.70;;;;;;5056455;28;20040;-62
2022/12/03 12:18:49;;;;;;;9.55;6.25;;;22.20;32.00;;;;;;5053386;28;20028;-61
2022/12/03 12:21:37;;;;;;;10.77;5.85;;;22.20;32.10;;;;;;5045411;28;20464;-62
2022/12/03 12:24:32;;;;;;;9.88;5.75;;;22.30;32.20;;;;;;5051001;28;20021;-62
2022/12/03 12:26:59;;;;;;;;;;;22.30;32.30;;;;;;5058438;28;20037;-63
2022/12/03 12:29:25;;;;;;;13.20;6.35;;;22.30;32.30;;;;;;5056052;28;19923;-63
2022/12/03 12:31:58;;;;;;;11.70;6.97;;;22.40;32.30;;;;;;5056279;28;20041;-61
2022/12/03 12:34:24;;;;;;;11.13;6.05;;;22.40;32.40;;;;;;5050764;28;20317;-60
2022/12/03 12:36:51;;;;;;;9.68;6.15;;;22.40;32.40;;;;;;5054900;28;20044;-63
2022/12/03 12:39:16;;;;;;;10.10;5.85;;;22.50;32.30;;;;;;5047246;28;20036;-62
2022/12/03 12:41:47;;;;;;;10.07;6.30;;;22.50;32.40;;;;;;5053601;28;20025;-62
2022/12/03 12:44:13;;;;;;;9.80;6.30;;;22.60;32.50;;;;;;5057366;28;20040;-63
2022/12/03 12:46:45;;;;;;;9.82;5.75;;;22.60;32.40;;;;;;5056104;28;20091;-61
2022/12/03 12:49:19;;;;;;;11.45;6.20;;;22.70;32.40;;;;;;5057083;28;20025;-64
2022/12/03 12:51:48;;;;;;;11.18;6.47;;;22.70;32.30;;;;;;5055915;28;20040;-63
2022/12/03 12:54:17;;;;;;;9.07;6.05;;;22.80;32.30;;;;;;5065787;28;20020;-63
2022/12/03 12:56:49;;;;;;;10.82;6.32;;;22.80;32.20;;;;;;5058999;28;20059;-62
2022/12/03 12:59:20;;;;;;;10.32;5.82;;;22.80;32.10;;;;;;5053994;28;20064;-62
2022/12/03 13:01:49;;;;;;;10.57;6.25;;;22.90;32.20;;;;;;5054142;28;20448;-61
2022/12/03 13:04:16;;;;;;;10.50;6.03;;;22.90;32.10;;;;;;5055670;28;20087;-62
2022/12/03 13:06:43;;;;;;;10.20;6.65;;;22.90;32.00;;;;;;5055552;28;20522;-62
2022/12/03 13:09:19;;;;;;;9.65;6.55;;;22.90;32.00;;;;;;5055938;28;20040;-63
2022/12/03 13:11:50;;;;;;;10.20;6.00;;;23.00;32.00;;;;;;5053775;28;20091;-60
2022/12/03 13:14:20;;;;;;;10.23;6.85;;;23.00;31.90;;;;;;5056978;28;20451;-63